createdAt,value
2023-01-31T00:00:00.820Z,3.67
2023-01-31T00:01:11.184Z,3.92
2023-01-31T00:02:12.936Z,3.49
2023-01-31T00:03:14.606Z,3.19
2023-01-31T00:04:17.263Z,3.78
2023-01-31T00:05:20.497Z,3.70
2023-01-31T00:06:31.113Z,3.87
2023-01-31T00:07:32.733Z,3.85
2023-01-31T00:08:34.325Z,3.53
2023-01-31T00:09:36.237Z,3.48
2023-01-31T00:10:38.420Z,3.26
2023-01-31T00:11:40.490Z,2.99
2023-01-31T00:12:42.659Z,3.34
2023-01-31T00:13:44.985Z,3.00
2023-01-31T00:14:46.762Z,3.09
2023-01-31T00:15:48.398Z,3.14
2023-01-31T00:16:50.058Z,3.25
2023-01-31T00:17:51.655Z,3.03
2023-01-31T00:18:53.733Z,3.84
2023-01-31T00:19:55.509Z,3.22
2023-01-31T00:20:57.053Z,3.69
2023-01-31T00:21:58.695Z,3.74
2023-01-31T00:23:00.345Z,3.36
2023-01-31T00:24:05.037Z,3.84
2023-01-31T00:25:07.287Z,3.80
2023-01-31T00:26:16.478Z,3.81
2023-01-31T00:27:18.140Z,3.76
2023-01-31T00:28:19.905Z,3.67
2023-01-31T00:29:21.523Z,3.57
2023-01-31T00:30:23.139Z,3.18
2023-01-31T00:31:27.126Z,3.83
2023-01-31T00:32:28.825Z,2.82
2023-01-31T00:33:30.481Z,2.90
2023-01-31T00:34:32.059Z,2.99
2023-01-31T00:35:33.740Z,3.48
2023-01-31T00:36:36.894Z,3.20
2023-01-31T00:37:39.318Z,3.87
2023-01-31T00:38:42.527Z,3.82
2023-01-31T00:39:44.142Z,3.94
2023-01-31T00:40:53.172Z,3.89
2023-01-31T00:41:54.894Z,3.97
2023-01-31T00:42:56.674Z,3.89
2023-01-31T00:43:58.709Z,3.93
2023-01-31T00:45:00.301Z,3.72
2023-01-31T00:46:02.568Z,3.26
2023-01-31T00:47:04.297Z,3.91
2023-01-31T00:48:05.867Z,3.17
2023-01-31T00:49:07.567Z,3.71
2023-01-31T00:50:10.517Z,3.60
2023-01-31T00:51:12.526Z,3.88
2023-01-31T00:52:14.102Z,3.28
2023-01-31T00:53:17.634Z,3.86
2023-01-31T00:54:19.287Z,3.95
2023-01-31T00:55:21.385Z,3.42
2023-01-31T00:56:24.582Z,3.96
2023-01-31T00:57:26.286Z,3.89
2023-01-31T00:58:28.112Z,4.01
2023-01-31T00:59:29.870Z,4.01
2023-01-31T01:00:31.542Z,3.83
2023-01-31T01:01:33.418Z,3.93
2023-01-31T01:02:35.697Z,3.43
2023-01-31T01:03:38.590Z,4.04
2023-01-31T01:04:40.334Z,3.62
2023-01-31T01:05:41.992Z,3.96
2023-01-31T01:06:43.629Z,4.00
2023-01-31T01:07:45.232Z,3.55
2023-01-31T01:08:48.107Z,3.72
2023-01-31T01:09:49.897Z,3.77
2023-01-31T01:10:51.502Z,3.99
2023-01-31T01:11:55.244Z,3.58
2023-01-31T01:12:59.128Z,3.72
2023-01-31T01:14:01.146Z,3.96
2023-01-31T01:15:03.107Z,4.01
2023-01-31T01:16:16.797Z,4.08
2023-01-31T01:17:18.468Z,2.84
2023-01-31T01:18:20.089Z,3.87
2023-01-31T01:19:21.932Z,3.16
2023-01-31T01:20:23.745Z,3.62
2023-01-31T01:21:28.021Z,3.86
2023-01-31T01:22:31.115Z,3.95
2023-01-31T01:23:33.127Z,3.67
2023-01-31T01:24:34.805Z,3.71
2023-01-31T01:25:43.756Z,3.84
2023-01-31T01:26:46.026Z,3.84
2023-01-31T01:27:47.673Z,3.36
2023-01-31T01:28:50.345Z,3.74
2023-01-31T01:29:52.044Z,3.97
2023-01-31T01:30:53.760Z,3.33
2023-01-31T01:31:55.384Z,3.70
2023-01-31T01:32:57.077Z,3.63
2023-01-31T01:34:00.994Z,3.74
2023-01-31T01:35:03.476Z,3.75
2023-01-31T01:36:07.547Z,3.68
2023-01-31T01:37:20.164Z,3.72
2023-01-31T01:38:21.817Z,3.89
2023-01-31T01:39:23.621Z,3.38
2023-01-31T01:40:25.430Z,3.72
2023-01-31T01:41:27.323Z,3.83
2023-01-31T01:42:34.866Z,3.70
2023-01-31T01:43:58.167Z,3.92
2023-01-31T01:45:01.788Z,3.66
2023-01-31T01:46:03.532Z,3.34
2023-01-31T01:47:05.317Z,3.65
2023-01-31T01:48:09.161Z,3.10
2023-01-31T01:49:30.051Z,3.75
2023-01-31T01:50:42.471Z,3.76
2023-01-31T01:51:46.209Z,3.75
2023-01-31T01:53:11.338Z,3.57
2023-01-31T01:54:25.017Z,3.74
2023-01-31T01:55:37.651Z,3.53
2023-01-31T01:56:43.283Z,3.83
2023-01-31T01:57:47.571Z,3.73
2023-01-31T01:59:02.077Z,3.93
2023-01-31T02:00:21.172Z,3.84
2023-01-31T02:01:25.051Z,3.82
2023-01-31T02:02:28.474Z,3.44
2023-01-31T02:03:30.867Z,3.69
2023-01-31T02:04:39.502Z,3.83
2023-01-31T02:05:56.743Z,3.81
2023-01-31T02:07:00.503Z,3.63
2023-01-31T02:08:03.376Z,3.04
2023-01-31T02:09:11.696Z,3.29
2023-01-31T02:10:36.059Z,3.51
2023-01-31T02:11:37.849Z,3.58
2023-01-31T02:12:40.147Z,3.61
2023-01-31T02:13:44.805Z,3.29
2023-01-31T02:14:47.936Z,3.78
2023-01-31T02:15:49.653Z,3.06
2023-01-31T02:16:54.001Z,2.92
2023-01-31T02:17:55.815Z,3.70
2023-01-31T02:18:58.467Z,3.73
2023-01-31T02:20:42.129Z,3.79
2023-01-31T02:22:15.165Z,3.82
2023-01-31T02:23:38.316Z,3.79
2023-01-31T02:25:13.475Z,3.76
2023-01-31T02:26:39.614Z,3.74
2023-01-31T02:28:14.448Z,3.57
2023-01-31T02:29:21.743Z,3.79
2023-01-31T02:30:32.728Z,3.80
2023-01-31T02:31:59.112Z,3.82
2023-01-31T02:33:13.759Z,3.42
2023-01-31T02:34:24.887Z,3.79
2023-01-31T02:35:37.534Z,3.78
2023-01-31T02:37:04.046Z,3.80
2023-01-31T02:38:25.359Z,3.66
2023-01-31T02:39:46.203Z,3.79
2023-01-31T02:41:16.385Z,3.81
2023-01-31T02:42:20.616Z,3.81
2023-01-31T02:43:26.113Z,3.83
2023-01-31T02:44:53.932Z,3.11
2023-01-31T02:46:09.593Z,3.82
2023-01-31T02:47:18.332Z,3.84
2023-01-31T02:48:42.115Z,3.40
2023-01-31T02:49:53.154Z,3.65
2023-01-31T02:50:54.703Z,3.76
2023-01-31T02:52:16.390Z,3.57
2023-01-31T02:53:43.585Z,3.76
2023-01-31T02:55:15.451Z,3.37
2023-01-31T02:56:24.468Z,3.68
2023-01-31T02:57:26.125Z,3.77
2023-01-31T02:58:33.065Z,3.74
2023-01-31T02:59:36.701Z,3.64
2023-01-31T03:00:41.887Z,3.53
2023-01-31T03:01:46.785Z,3.65
2023-01-31T03:02:48.564Z,3.67
2023-01-31T03:03:51.959Z,3.73
2023-01-31T03:04:53.665Z,3.44
2023-01-31T03:06:27.038Z,3.71
2023-01-31T03:07:33.766Z,3.22
2023-01-31T03:08:36.634Z,3.61
2023-01-31T03:09:40.914Z,3.71
2023-01-31T03:11:11.735Z,3.75
2023-01-31T03:12:30.698Z,3.77
2023-01-31T03:13:35.087Z,3.78
2023-01-31T03:14:48.591Z,3.80
2023-01-31T03:16:19.318Z,3.81
2023-01-31T03:17:39.249Z,3.84
2023-01-31T03:18:49.729Z,3.71
2023-01-31T03:20:06.937Z,3.82
2023-01-31T03:21:14.831Z,3.63
2023-01-31T03:22:24.191Z,3.82
2023-01-31T03:23:31.140Z,3.29
2023-01-31T03:24:33.887Z,3.73
2023-01-31T03:25:38.292Z,3.45
2023-01-31T03:26:40.968Z,3.40
2023-01-31T03:27:48.448Z,3.69
2023-01-31T03:28:57.118Z,3.67
2023-01-31T03:30:05.744Z,3.36
2023-01-31T03:31:23.503Z,3.63
2023-01-31T03:32:32.629Z,3.24
2023-01-31T03:33:44.413Z,3.50
2023-01-31T03:34:46.967Z,3.18
2023-01-31T03:35:55.335Z,3.76
2023-01-31T03:37:13.940Z,3.75
2023-01-31T03:38:20.934Z,3.59
2023-01-31T03:39:44.759Z,3.70
2023-01-31T03:40:53.437Z,3.75
2023-01-31T03:42:09.547Z,3.62
2023-01-31T03:43:25.192Z,3.77
2023-01-31T03:44:38.804Z,3.78
2023-01-31T03:45:40.329Z,3.78
2023-01-31T03:46:47.909Z,3.18
2023-01-31T03:47:54.318Z,3.81
2023-01-31T03:48:58.628Z,3.10
2023-01-31T03:50:05.896Z,3.84
2023-01-31T03:51:15.107Z,3.85
2023-01-31T03:52:23.919Z,3.68
2023-01-31T03:53:37.986Z,3.41
2023-01-31T03:54:44.680Z,3.81
2023-01-31T03:55:57.052Z,3.87
2023-01-31T03:57:02.859Z,3.71
2023-01-31T03:58:07.747Z,3.74
2023-01-31T03:59:17.603Z,3.65
2023-01-31T04:00:22.909Z,3.72
2023-01-31T04:01:28.014Z,3.62
2023-01-31T04:02:35.983Z,3.82
2023-01-31T04:03:42.180Z,3.79
2023-01-31T04:04:56.004Z,3.63
2023-01-31T04:05:57.735Z,3.43
2023-01-31T04:07:00.839Z,3.76
2023-01-31T04:08:02.578Z,3.35
2023-01-31T04:09:05.172Z,3.44
2023-01-31T04:10:13.012Z,2.84
2023-01-31T04:11:15.187Z,2.99
2023-01-31T04:12:16.826Z,3.40
2023-01-31T04:13:18.532Z,3.26
2023-01-31T04:14:20.423Z,3.46
2023-01-31T04:15:22.463Z,3.51
2023-01-31T04:16:24.227Z,3.10
2023-01-31T04:17:25.878Z,3.52
2023-01-31T04:18:28.590Z,3.25
2023-01-31T04:19:30.236Z,3.49
2023-01-31T04:20:32.249Z,3.18
2023-01-31T04:21:33.919Z,3.36
2023-01-31T04:22:35.704Z,3.36
2023-01-31T04:23:37.355Z,3.44
2023-01-31T04:24:39.061Z,3.22
2023-01-31T04:25:40.778Z,2.76
2023-01-31T04:26:42.374Z,3.08
2023-01-31T04:27:44.042Z,3.46
2023-01-31T04:28:45.635Z,3.22
2023-01-31T04:29:47.210Z,3.33
2023-01-31T04:30:56.662Z,3.45
2023-01-31T04:31:58.354Z,3.09
2023-01-31T04:33:00.072Z,3.38
2023-01-31T04:34:01.649Z,3.52
2023-01-31T04:35:03.462Z,2.75
2023-01-31T04:36:05.395Z,3.57
2023-01-31T04:37:07.149Z,3.57
2023-01-31T04:38:08.960Z,3.04
2023-01-31T04:39:11.211Z,3.02
2023-01-31T04:40:15.716Z,3.45
2023-01-31T04:41:17.398Z,3.39
2023-01-31T04:42:19.018Z,3.46
2023-01-31T04:43:21.626Z,3.30
2023-01-31T04:44:23.232Z,3.25
2023-01-31T04:45:24.871Z,2.26
2023-01-31T04:46:26.444Z,2.98
2023-01-31T04:47:28.035Z,3.01
2023-01-31T04:48:30.087Z,2.93
2023-01-31T04:49:31.969Z,2.84
2023-01-31T04:50:33.738Z,3.09
2023-01-31T04:51:35.363Z,3.10
2023-01-31T04:52:38.122Z,2.79
2023-01-31T04:53:39.777Z,2.82
2023-01-31T04:54:42.108Z,2.75
2023-01-31T04:55:43.796Z,2.79
2023-01-31T04:56:45.345Z,2.41
2023-01-31T04:57:46.989Z,2.81
2023-01-31T04:58:48.757Z,2.23
2023-01-31T04:59:52.199Z,2.78
2023-01-31T05:00:54.810Z,2.95
2023-01-31T05:01:56.851Z,2.78
2023-01-31T05:02:58.636Z,2.65
2023-01-31T05:04:00.245Z,2.61
2023-01-31T05:05:02.905Z,2.67
2023-01-31T05:06:04.668Z,2.57
2023-01-31T05:07:06.805Z,2.65
2023-01-31T05:08:08.423Z,2.38
2023-01-31T05:09:11.464Z,2.45
2023-01-31T05:10:13.725Z,2.71
2023-01-31T05:11:15.392Z,2.63
2023-01-31T05:12:17.004Z,1.88
2023-01-31T05:13:18.675Z,2.71
2023-01-31T05:14:21.158Z,2.67
2023-01-31T05:15:23.091Z,2.49
2023-01-31T05:16:25.081Z,2.40
2023-01-31T05:17:29.709Z,2.20
2023-01-31T05:18:31.477Z,2.15
2023-01-31T05:19:33.117Z,2.24
2023-01-31T05:20:40.941Z,2.14
2023-01-31T05:21:55.340Z,1.80
2023-01-31T05:22:58.114Z,1.20
2023-01-31T05:23:59.662Z,1.72
2023-01-31T05:25:01.343Z,1.81
2023-01-31T05:26:03.687Z,1.37
2023-01-31T05:27:05.616Z,1.32
2023-01-31T05:28:07.591Z,1.47
2023-01-31T05:29:09.538Z,0.87
2023-01-31T05:30:12.051Z,0.89
2023-01-31T05:31:13.773Z,1.20
2023-01-31T05:32:16.825Z,1.51
2023-01-31T05:33:20.726Z,0.81
2023-01-31T05:34:25.229Z,1.62
2023-01-31T05:35:27.207Z,1.04
2023-01-31T05:36:28.958Z,1.52
2023-01-31T05:37:31.433Z,1.36
2023-01-31T05:38:33.452Z,1.05
2023-01-31T05:39:35.908Z,0.47
2023-01-31T05:40:37.614Z,0.42
2023-01-31T05:41:39.246Z,0.95
2023-01-31T05:42:41.328Z,0.33
2023-01-31T05:43:42.824Z,0.15
2023-01-31T05:44:44.413Z,0.45
2023-01-31T05:45:48.571Z,0.75
2023-01-31T05:46:50.509Z,0.83
2023-01-31T05:47:52.695Z,0.79
2023-01-31T05:48:54.641Z,0.74
2023-01-31T05:49:56.159Z,0.62
2023-01-31T05:50:57.910Z,0.28
2023-01-31T05:52:00.775Z,0.81
2023-01-31T05:53:05.610Z,1.00
2023-01-31T05:54:08.239Z,0.69
2023-01-31T05:55:09.977Z,0.84
2023-01-31T05:56:11.880Z,0.31
2023-01-31T05:57:15.261Z,1.05
2023-01-31T05:58:16.953Z,0.75
2023-01-31T05:59:18.578Z,0.89
2023-01-31T06:00:21.008Z,0.84
2023-01-31T06:01:25.442Z,0.79
2023-01-31T06:02:27.137Z,0.76
2023-01-31T06:03:28.905Z,0.29
2023-01-31T06:04:30.882Z,0.30
2023-01-31T06:05:34.046Z,0.69
2023-01-31T06:06:35.579Z,0.81
2023-01-31T06:07:37.876Z,0.61
2023-01-31T06:08:41.891Z,0.87
2023-01-31T06:09:43.730Z,0.79
2023-01-31T06:10:45.403Z,0.94
2023-01-31T06:11:47.076Z,0.82
2023-01-31T06:12:48.739Z,1.08
2023-01-31T06:13:50.397Z,0.99
2023-01-31T06:14:52.177Z,0.94
2023-01-31T06:15:53.831Z,0.84
2023-01-31T06:16:55.422Z,1.09
2023-01-31T06:17:56.998Z,1.09
2023-01-31T06:18:59.066Z,1.13
2023-01-31T06:20:00.671Z,1.17
2023-01-31T06:21:02.595Z,1.31
2023-01-31T06:22:06.776Z,1.07
2023-01-31T06:23:08.359Z,1.41
2023-01-31T06:24:10.214Z,1.30
2023-01-31T06:25:11.872Z,1.17
2023-01-31T06:26:14.281Z,0.99
2023-01-31T06:27:16.042Z,1.16
2023-01-31T06:28:18.303Z,1.45
2023-01-31T06:29:19.850Z,1.62
2023-01-31T06:30:21.518Z,1.57
2023-01-31T06:31:23.201Z,1.69
2023-01-31T06:32:24.974Z,1.28
2023-01-31T06:33:42.237Z,1.18
2023-01-31T06:34:47.395Z,1.69
2023-01-31T06:35:48.979Z,1.47
2023-01-31T06:36:50.570Z,1.79
2023-01-31T06:37:52.297Z,1.09
2023-01-31T06:38:53.920Z,1.90
2023-01-31T06:39:55.752Z,1.55
2023-01-31T06:40:57.730Z,1.60
2023-01-31T06:41:59.475Z,1.80
2023-01-31T06:43:01.060Z,1.38
2023-01-31T06:44:02.784Z,1.71
2023-01-31T06:45:04.687Z,1.36
2023-01-31T06:46:06.365Z,1.84
2023-01-31T06:47:08.136Z,1.83
2023-01-31T06:48:09.933Z,1.93
2023-01-31T06:49:11.593Z,1.91
2023-01-31T06:50:13.831Z,1.88
2023-01-31T06:51:18.400Z,1.80
2023-01-31T06:52:19.935Z,1.25
2023-01-31T06:53:21.637Z,1.91
2023-01-31T06:54:23.300Z,1.25
2023-01-31T06:55:25.093Z,1.74
2023-01-31T06:56:26.810Z,1.36
2023-01-31T06:57:28.434Z,1.33
2023-01-31T06:58:30.364Z,1.72
2023-01-31T06:59:32.669Z,1.86
2023-01-31T07:00:34.524Z,1.90
2023-01-31T07:01:36.479Z,1.50
2023-01-31T07:02:38.129Z,1.63
2023-01-31T07:03:40.684Z,1.76
2023-01-31T07:04:42.495Z,1.89
2023-01-31T07:05:45.864Z,2.12
2023-01-31T07:06:47.388Z,1.48
2023-01-31T07:07:50.101Z,1.93
2023-01-31T07:08:51.862Z,2.05
2023-01-31T07:09:53.991Z,1.97
2023-01-31T07:10:55.599Z,2.10
2023-01-31T07:11:57.257Z,1.56
2023-01-31T07:12:58.855Z,1.74
2023-01-31T07:14:00.501Z,1.66
2023-01-31T07:15:02.682Z,1.61
2023-01-31T07:16:04.560Z,2.44
2023-01-31T07:17:06.545Z,2.29
2023-01-31T07:18:08.234Z,1.78
2023-01-31T07:19:09.985Z,2.18
2023-01-31T07:20:12.200Z,2.45
2023-01-31T07:21:14.005Z,1.63
2023-01-31T07:22:15.777Z,2.38
2023-01-31T07:23:17.485Z,2.31
2023-01-31T07:24:19.126Z,1.48
2023-01-31T07:25:21.102Z,1.69
2023-01-31T07:26:23.091Z,2.14
2023-01-31T07:27:24.775Z,2.23
2023-01-31T07:28:26.463Z,2.17
2023-01-31T07:29:28.032Z,1.95
2023-01-31T07:30:30.347Z,2.11
2023-01-31T07:31:32.473Z,2.37
2023-01-31T07:32:35.401Z,1.78
2023-01-31T07:33:37.701Z,2.39
2023-01-31T07:34:39.257Z,1.52
2023-01-31T07:35:43.766Z,2.07
2023-01-31T07:36:46.705Z,2.06
2023-01-31T07:37:48.287Z,2.25
2023-01-31T07:38:49.807Z,1.49
2023-01-31T07:39:51.644Z,1.83
2023-01-31T07:40:53.204Z,1.60
2023-01-31T07:41:54.885Z,1.93
2023-01-31T07:43:00.109Z,1.79
2023-01-31T07:44:01.702Z,1.91
2023-01-31T07:45:33.645Z,1.62
2023-01-31T07:46:25.132Z,1.99
2023-01-31T07:47:26.996Z,2.12
2023-01-31T07:48:28.633Z,2.06
2023-01-31T07:49:30.824Z,1.87
2023-01-31T07:50:32.529Z,1.87
2023-01-31T07:51:36.015Z,1.64
2023-01-31T07:52:38.786Z,1.91
2023-01-31T07:53:42.285Z,2.02
2023-01-31T07:54:43.926Z,2.20
2023-01-31T07:55:47.655Z,2.20
2023-01-31T07:56:49.392Z,2.17
2023-01-31T07:57:51.123Z,1.74
2023-01-31T07:58:52.865Z,2.14
2023-01-31T07:59:54.615Z,1.93
2023-01-31T08:01:15.418Z,1.54
2023-01-31T08:02:36.513Z,1.93
2023-01-31T08:03:38.191Z,2.10
2023-01-31T08:04:39.905Z,2.15
2023-01-31T08:05:41.807Z,2.14
2023-01-31T08:06:44.938Z,1.92
2023-01-31T08:08:06.634Z,1.81
2023-01-31T08:09:08.565Z,1.80
2023-01-31T08:10:12.355Z,2.26
2023-01-31T08:11:14.049Z,1.85
2023-01-31T08:12:16.303Z,2.45
2023-01-31T08:13:17.917Z,1.85
2023-01-31T08:14:25.337Z,1.69
2023-01-31T08:15:27.359Z,1.49
2023-01-31T08:16:30.410Z,2.38
2023-01-31T08:17:32.910Z,2.49
2023-01-31T08:18:35.061Z,2.36
2023-01-31T08:19:37.178Z,2.42
2023-01-31T08:20:38.911Z,2.51
2023-01-31T08:21:40.740Z,2.86
2023-01-31T08:22:42.310Z,3.16
2023-01-31T08:23:44.979Z,3.68
2023-01-31T08:24:46.828Z,3.80
2023-01-31T08:25:48.384Z,4.25
2023-01-31T08:26:50.093Z,4.37
2023-01-31T08:27:51.735Z,4.79
2023-01-31T08:28:56.527Z,4.88
2023-01-31T08:29:58.146Z,4.79
2023-01-31T08:31:08.646Z,4.48
2023-01-31T08:32:10.837Z,3.94
2023-01-31T08:33:12.602Z,4.84
2023-01-31T08:34:14.195Z,4.34
2023-01-31T08:35:15.914Z,4.50
2023-01-31T08:36:20.487Z,4.51
2023-01-31T08:37:22.053Z,4.36
2023-01-31T08:38:23.922Z,4.34
2023-01-31T08:39:25.778Z,4.21
2023-01-31T08:40:27.458Z,3.70
2023-01-31T08:41:30.650Z,3.98
2023-01-31T08:42:32.720Z,3.54
2023-01-31T08:43:45.520Z,2.98
2023-01-31T08:44:55.538Z,3.35
2023-01-31T08:45:57.102Z,3.63
2023-01-31T08:47:01.853Z,3.36
2023-01-31T08:48:04.191Z,3.48
2023-01-31T08:49:07.400Z,3.69
2023-01-31T08:50:25.744Z,3.82
2023-01-31T08:51:29.340Z,4.33
2023-01-31T08:52:35.387Z,4.52
2023-01-31T08:53:39.007Z,4.79
2023-01-31T08:54:41.278Z,4.93
2023-01-31T08:55:43.132Z,4.63
2023-01-31T08:56:44.787Z,5.21
2023-01-31T08:57:58.877Z,6.34
2023-01-31T08:59:01.592Z,6.97
2023-01-31T09:00:03.689Z,8.31
2023-01-31T09:01:08.283Z,9.55
2023-01-31T09:02:12.963Z,9.17
2023-01-31T09:03:18.586Z,9.95
2023-01-31T09:04:20.221Z,10.13
2023-01-31T09:05:22.873Z,10.93
2023-01-31T09:06:27.489Z,11.30
2023-01-31T09:07:30.212Z,11.10
2023-01-31T09:08:32.515Z,12.17
2023-01-31T09:09:35.236Z,11.93
2023-01-31T09:10:37.241Z,11.22
2023-01-31T09:11:39.662Z,12.44
2023-01-31T09:12:41.381Z,11.35
2023-01-31T09:13:43.390Z,11.51
2023-01-31T09:14:45.105Z,10.24
2023-01-31T09:15:46.755Z,10.60
2023-01-31T09:16:48.496Z,11.11
2023-01-31T09:17:50.090Z,10.27
2023-01-31T09:18:53.406Z,10.00
2023-01-31T09:19:55.178Z,10.13
2023-01-31T09:20:56.932Z,9.99
2023-01-31T09:21:58.527Z,10.65
2023-01-31T09:23:00.343Z,9.90
2023-01-31T09:24:05.033Z,9.51
2023-01-31T09:25:07.353Z,8.69
2023-01-31T09:26:09.676Z,8.71
2023-01-31T09:27:11.251Z,8.12
2023-01-31T09:28:12.795Z,7.78
2023-01-31T09:29:14.436Z,7.17
2023-01-31T09:30:16.703Z,6.63
2023-01-31T09:31:23.861Z,6.09
2023-01-31T09:32:25.629Z,6.00
2023-01-31T09:33:27.135Z,5.44
2023-01-31T09:34:28.904Z,5.89
2023-01-31T09:35:32.055Z,6.28
2023-01-31T09:36:34.381Z,5.83
2023-01-31T09:37:36.006Z,6.40
2023-01-31T09:38:38.734Z,6.38
2023-01-31T09:39:40.501Z,5.43
2023-01-31T09:40:42.129Z,5.49
2023-01-31T09:41:49.806Z,5.48
2023-01-31T09:42:56.107Z,5.48
2023-01-31T09:44:34.470Z,6.18
2023-01-31T09:45:39.878Z,5.80
2023-01-31T09:46:47.060Z,5.73
2023-01-31T09:47:56.540Z,6.14
2023-01-31T09:49:02.258Z,6.06
2023-01-31T09:50:13.000Z,6.06
2023-01-31T09:51:16.563Z,6.08
2023-01-31T09:52:19.982Z,6.05
2023-01-31T09:53:24.160Z,5.68
2023-01-31T09:54:33.785Z,6.38
2023-01-31T09:55:56.699Z,7.72
2023-01-31T09:57:13.159Z,8.49
2023-01-31T09:58:32.034Z,8.60
2023-01-31T09:59:47.735Z,8.80
2023-01-31T10:01:01.234Z,9.66
2023-01-31T10:02:14.778Z,10.37
2023-01-31T10:03:22.873Z,9.93
2023-01-31T10:04:51.669Z,11.78
2023-01-31T10:06:04.185Z,12.33
2023-01-31T10:07:14.375Z,12.56
2023-01-31T10:08:33.068Z,12.35
2023-01-31T10:09:44.986Z,13.76
2023-01-31T10:10:52.993Z,14.89
2023-01-31T10:12:03.949Z,12.82
2023-01-31T10:13:20.629Z,12.05
2023-01-31T10:14:30.452Z,10.66
2023-01-31T10:15:46.493Z,9.22
2023-01-31T10:17:16.759Z,8.57
2023-01-31T10:18:29.299Z,8.21
2023-01-31T10:19:55.266Z,8.01
2023-01-31T10:21:05.284Z,7.70
2023-01-31T10:22:12.493Z,8.35
2023-01-31T10:23:30.327Z,8.69
2023-01-31T10:24:59.768Z,8.21
2023-01-31T10:26:11.874Z,7.98
2023-01-31T10:27:40.948Z,7.62
2023-01-31T10:28:55.565Z,7.17
2023-01-31T10:30:00.947Z,6.88
2023-01-31T10:31:10.405Z,6.10
2023-01-31T10:32:27.143Z,6.06
2023-01-31T10:33:57.184Z,6.28
2023-01-31T10:35:16.399Z,6.08
2023-01-31T10:36:38.513Z,5.80
2023-01-31T10:37:56.897Z,5.93
2023-01-31T10:39:05.172Z,5.14
2023-01-31T10:40:17.651Z,5.66
2023-01-31T10:41:30.312Z,5.67
2023-01-31T10:42:38.014Z,5.62
2023-01-31T10:43:47.341Z,5.54
2023-01-31T10:44:56.595Z,5.37
2023-01-31T10:46:00.689Z,5.19
2023-01-31T10:47:02.717Z,5.11
2023-01-31T10:48:20.834Z,5.40
2023-01-31T10:49:25.541Z,5.44
2023-01-31T10:50:54.949Z,5.51
2023-01-31T10:52:07.037Z,5.46
2023-01-31T10:53:34.832Z,5.23
2023-01-31T10:54:50.033Z,5.30
2023-01-31T10:56:04.897Z,5.16
2023-01-31T10:57:06.823Z,4.89
2023-01-31T10:58:14.733Z,5.13
2023-01-31T10:59:25.168Z,5.16
2023-01-31T11:00:30.453Z,5.34
2023-01-31T11:01:32.222Z,5.40
2023-01-31T11:02:34.154Z,5.64
2023-01-31T11:03:35.782Z,5.58
2023-01-31T11:04:41.966Z,5.74
2023-01-31T11:05:51.360Z,5.79
2023-01-31T11:06:54.170Z,6.25
2023-01-31T11:07:58.896Z,6.30
2023-01-31T11:09:03.068Z,6.01
2023-01-31T11:10:30.834Z,6.79
2023-01-31T11:11:32.373Z,7.00
2023-01-31T11:12:43.405Z,6.90
2023-01-31T11:14:02.247Z,7.09
2023-01-31T11:15:19.956Z,6.80
2023-01-31T11:16:22.061Z,6.81
2023-01-31T11:17:27.071Z,7.03
2023-01-31T11:18:35.161Z,7.41
2023-01-31T11:19:57.743Z,6.95
2023-01-31T11:21:01.820Z,7.70
2023-01-31T11:22:04.686Z,7.61
2023-01-31T11:23:07.124Z,6.94
2023-01-31T11:24:28.291Z,7.09
2023-01-31T11:25:33.785Z,6.94
2023-01-31T11:26:39.895Z,7.28
2023-01-31T11:27:43.825Z,7.09
2023-01-31T11:28:53.752Z,7.66
2023-01-31T11:29:59.902Z,7.23
2023-01-31T11:31:03.356Z,6.71
2023-01-31T11:32:19.066Z,7.16
2023-01-31T11:33:48.945Z,7.48
2023-01-31T11:35:25.480Z,7.16
2023-01-31T11:36:32.780Z,7.11
2023-01-31T11:37:35.092Z,7.45
2023-01-31T11:38:36.728Z,7.07
2023-01-31T11:39:39.769Z,7.39
2023-01-31T11:40:41.485Z,7.22
2023-01-31T11:41:43.174Z,7.71
2023-01-31T11:42:55.989Z,7.63
2023-01-31T11:44:19.180Z,7.64
2023-01-31T11:45:24.042Z,7.83
2023-01-31T11:46:25.723Z,7.91
2023-01-31T11:47:42.017Z,8.08
2023-01-31T11:48:45.561Z,7.53
2023-01-31T11:49:50.481Z,7.55
2023-01-31T11:50:55.696Z,7.71
2023-01-31T11:52:02.342Z,7.21
2023-01-31T11:53:15.547Z,8.18
2023-01-31T11:54:33.932Z,8.58
2023-01-31T11:55:38.416Z,9.31
2023-01-31T11:56:40.197Z,9.47
2023-01-31T11:57:44.300Z,9.14
2023-01-31T11:58:50.207Z,8.97
2023-01-31T11:59:55.015Z,8.64
2023-01-31T12:01:05.597Z,8.71
2023-01-31T12:02:38.379Z,8.07
2023-01-31T12:04:01.810Z,7.90
2023-01-31T12:05:14.111Z,7.92
2023-01-31T12:06:36.748Z,7.96
2023-01-31T12:07:42.768Z,8.33
2023-01-31T12:08:44.496Z,8.31
2023-01-31T12:09:46.177Z,8.17
2023-01-31T12:10:48.853Z,7.48
2023-01-31T12:11:53.788Z,8.26
2023-01-31T12:13:16.483Z,8.13
2023-01-31T12:14:20.537Z,7.88
2023-01-31T12:15:22.845Z,7.87
2023-01-31T12:16:26.719Z,7.35
2023-01-31T12:17:31.842Z,7.41
2023-01-31T12:18:39.484Z,7.35
2023-01-31T12:20:01.547Z,7.17
2023-01-31T12:21:23.342Z,7.67
2023-01-31T12:22:36.352Z,7.67
2023-01-31T12:23:50.666Z,7.30
2023-01-31T12:25:23.599Z,7.65
2023-01-31T12:26:43.330Z,8.93
2023-01-31T12:28:03.900Z,9.93
2023-01-31T12:29:27.772Z,10.83
2023-01-31T12:30:54.112Z,10.99
2023-01-31T12:32:14.234Z,11.27
2023-01-31T12:33:18.354Z,10.97
2023-01-31T12:35:02.465Z,10.60
2023-01-31T12:36:24.477Z,10.24
2023-01-31T12:37:48.925Z,9.15
2023-01-31T12:39:16.183Z,8.61
2023-01-31T12:40:42.138Z,7.77
2023-01-31T12:42:08.820Z,6.97
2023-01-31T12:43:28.328Z,6.99
2023-01-31T12:44:47.576Z,6.67
2023-01-31T12:46:20.080Z,6.70
2023-01-31T12:47:51.151Z,6.86
2023-01-31T12:49:17.805Z,7.03
2023-01-31T12:50:37.329Z,7.06
2023-01-31T12:52:01.064Z,7.05
2023-01-31T12:53:22.029Z,7.00
2023-01-31T12:54:44.851Z,6.92
2023-01-31T12:56:19.985Z,6.70
2023-01-31T12:57:50.315Z,6.54
2023-01-31T12:59:16.455Z,6.08
2023-01-31T13:00:42.360Z,6.29
2023-01-31T13:01:59.887Z,6.23
2023-01-31T13:03:16.276Z,5.96
2023-01-31T13:04:33.245Z,6.31
2023-01-31T13:05:46.601Z,5.55
2023-01-31T13:06:57.021Z,6.30
2023-01-31T13:08:07.260Z,5.29
2023-01-31T13:09:16.759Z,5.78
2023-01-31T13:10:41.604Z,6.24
2023-01-31T13:11:49.924Z,6.09
2023-01-31T13:12:51.857Z,6.11
2023-01-31T13:14:04.422Z,6.32
2023-01-31T13:15:28.845Z,6.26
2023-01-31T13:16:35.781Z,5.79
2023-01-31T13:17:40.917Z,6.31
2023-01-31T13:18:46.412Z,5.75
2023-01-31T13:19:56.554Z,6.39
2023-01-31T13:21:04.475Z,6.27
2023-01-31T13:22:14.859Z,6.22
2023-01-31T13:23:32.721Z,6.13
2023-01-31T13:24:40.010Z,6.25
2023-01-31T13:25:55.053Z,5.93
2023-01-31T13:27:04.804Z,5.94
2023-01-31T13:28:14.823Z,5.85
2023-01-31T13:29:25.524Z,6.03
2023-01-31T13:30:36.817Z,6.40
2023-01-31T13:31:49.186Z,6.43
2023-01-31T13:32:55.238Z,6.32
2023-01-31T13:34:06.672Z,6.56
2023-01-31T13:35:18.130Z,6.58
2023-01-31T13:36:27.734Z,6.21
2023-01-31T13:37:32.330Z,6.05
2023-01-31T13:38:43.636Z,5.90
2023-01-31T13:40:17.064Z,5.86
2023-01-31T13:41:32.982Z,5.96
2023-01-31T13:42:34.775Z,5.63
2023-01-31T13:43:36.562Z,6.11
2023-01-31T13:44:38.507Z,5.93
2023-01-31T13:45:48.391Z,5.64
2023-01-31T13:46:53.219Z,5.44
2023-01-31T13:48:06.775Z,5.81
2023-01-31T13:49:18.199Z,5.81
2023-01-31T13:51:04.380Z,6.47
2023-01-31T13:52:14.895Z,6.19
2023-01-31T13:53:21.846Z,6.53
2023-01-31T13:54:34.898Z,6.23
2023-01-31T13:55:42.833Z,6.09
2023-01-31T13:56:50.962Z,5.91
2023-01-31T13:58:19.826Z,6.38
2023-01-31T13:59:24.916Z,6.31
2023-01-31T14:00:43.431Z,6.62
2023-01-31T14:01:50.219Z,6.39
2023-01-31T14:03:02.336Z,6.56
2023-01-31T14:04:17.505Z,6.57
2023-01-31T14:05:50.688Z,6.42
2023-01-31T14:06:58.232Z,6.45
2023-01-31T14:08:57.552Z,6.41
2023-01-31T14:09:59.131Z,6.42
2023-01-31T14:11:24.844Z,6.36
2023-01-31T14:12:35.495Z,6.38
2023-01-31T14:13:41.850Z,6.43
2023-01-31T14:14:46.494Z,6.44
2023-01-31T14:15:50.782Z,6.33
2023-01-31T14:16:53.356Z,6.13
2023-01-31T14:17:55.098Z,6.35
2023-01-31T14:18:56.753Z,6.08
2023-01-31T14:19:58.530Z,6.30
2023-01-31T14:21:29.188Z,6.10
2023-01-31T14:22:40.467Z,6.33
2023-01-31T14:23:47.334Z,6.02
2023-01-31T14:24:59.963Z,6.41
2023-01-31T14:26:01.707Z,6.10
2023-01-31T14:27:12.154Z,5.91
2023-01-31T14:28:14.633Z,6.51
2023-01-31T14:29:25.940Z,6.56
2023-01-31T14:30:43.331Z,6.43
2023-01-31T14:31:47.651Z,6.07
2023-01-31T14:33:08.165Z,6.28
2023-01-31T14:34:22.670Z,6.32
2023-01-31T14:35:45.680Z,6.41
2023-01-31T14:37:02.312Z,6.48
2023-01-31T14:38:17.459Z,6.60
2023-01-31T14:39:42.161Z,5.99
2023-01-31T14:41:15.011Z,6.68
2023-01-31T14:42:25.829Z,6.58
2023-01-31T14:43:52.001Z,6.58
2023-01-31T14:45:14.811Z,6.72
2023-01-31T14:46:22.421Z,6.79
2023-01-31T14:48:06.740Z,6.67
2023-01-31T14:49:23.193Z,6.70
2023-01-31T14:50:46.207Z,6.61
2023-01-31T14:52:03.250Z,6.61
2023-01-31T14:53:23.003Z,6.63
2023-01-31T14:54:55.517Z,6.61
2023-01-31T14:56:28.275Z,6.64
2023-01-31T14:57:41.086Z,6.28
2023-01-31T14:58:45.380Z,5.86